Time;durP1;ratioP1;P1;durP2;ratioP2;P2;SDS_P1;SDS_P2;PMS_P1;PMS_P2;Temp;Humidity;BMP_temperature;BMP_pressure;BME280_temperature;BME280_humidity;BME280_pressure;Samples;Min_cycle;Max_cycle;Signal;HPM_P1;HPM_P2
2023/08/13 00:01:44;;;;;;;11.63;3.53;;;17.30;99.90;;;;;;4881437;29;20049;-78
2023/08/13 00:04:10;;;;;;;11.57;3.05;;;17.30;99.90;;;;;;4869438;29;20052;-79
2023/08/13 00:06:36;;;;;;;13.02;3.15;;;17.20;99.90;;;;;;4880819;29;20063;-81
2023/08/13 00:09:02;;;;;;;10.23;3.38;;;17.20;99.90;;;;;;4874334;29;20054;-83
2023/08/13 00:11:27;;;;;;;9.50;3.00;;;17.20;99.90;;;;;;4883942;29;20064;-81
2023/08/13 00:13:53;;;;;;;9.73;3.00;;;17.20;99.90;;;;;;4880300;29;20057;-82
2023/08/13 00:16:19;;;;;;;8.27;3.05;;;17.20;99.90;;;;;;4862707;29;20056;-82
2023/08/13 00:18:45;;;;;;;12.60;3.22;;;17.20;99.90;;;;;;4879655;29;20056;-81
2023/08/13 00:21:11;;;;;;;9.30;2.88;;;17.10;99.90;;;;;;4880134;29;20045;-81
2023/08/13 00:23:37;;;;;;;10.18;2.90;;;17.10;99.90;;;;;;4879822;29;20121;-81
2023/08/13 00:26:03;;;;;;;11.90;3.47;;;17.10;99.90;;;;;;4884632;29;20538;-81
2023/08/13 00:28:30;;;;;;;12.15;3.58;;;17.10;99.90;;;;;;4863213;29;20088;-79
2023/08/13 00:30:55;;;;;;;8.15;3.03;;;17.00;99.90;;;;;;4878832;29;20052;-82
2023/08/13 00:33:21;;;;;;;10.40;2.45;;;17.00;99.90;;;;;;4850723;29;20041;-82
2023/08/13 00:35:50;;;;;;;13.55;3.55;;;17.00;99.90;;;;;;4881572;29;20060;-81
2023/08/13 00:38:16;;;;;;;13.18;3.13;;;17.00;99.90;;;;;;4863777;29;20167;-81
2023/08/13 00:40:42;;;;;;;13.80;3.15;;;16.90;99.90;;;;;;4862518;29;20507;-82
2023/08/13 00:43:07;;;;;;;8.75;3.20;;;16.90;99.90;;;;;;4879189;29;20045;-83
2023/08/13 00:45:35;;;;;;;9.35;2.97;;;16.90;99.90;;;;;;4879403;29;20518;-80
2023/08/13 00:48:01;;;;;;;11.65;3.80;;;16.90;99.90;;;;;;4888354;29;21766;-82
2023/08/13 00:50:28;;;;;;;12.13;3.20;;;16.90;99.90;;;;;;4882677;29;20432;-81
2023/08/13 00:52:54;;;;;;;11.50;2.85;;;16.90;99.90;;;;;;4881806;29;20484;-82
2023/08/13 00:55:20;;;;;;;7.75;2.90;;;16.80;99.90;;;;;;4872874;29;20242;-81
2023/08/13 00:57:46;;;;;;;12.07;3.13;;;16.80;99.90;;;;;;4881756;29;20136;-82
2023/08/13 01:00:13;;;;;;;12.52;3.60;;;16.80;99.90;;;;;;4850485;29;20056;-80
2023/08/13 01:02:38;;;;;;;16.10;3.20;;;16.80;99.90;;;;;;4865479;29;20056;-81
2023/08/13 01:05:07;;;;;;;9.75;3.35;;;16.80;99.90;;;;;;4882355;29;20041;-82
2023/08/13 01:07:52;;;;;;;13.07;4.03;;;16.80;99.90;;;;;;4886639;29;20113;-77
2023/08/13 01:10:31;;;;;;;10.88;3.80;;;16.80;99.90;;;;;;4880562;29;20076;-81
2023/08/13 01:13:10;;;;;;;13.75;3.47;;;16.70;99.90;;;;;;4881724;29;20088;-82
2023/08/13 01:15:42;;;;;;;13.70;3.53;;;16.80;99.90;;;;;;4881903;29;20049;-80
2023/08/13 01:18:09;;;;;;;14.52;3.65;;;16.70;99.90;;;;;;4881414;29;20045;-81
2023/08/13 01:20:42;;;;;;;13.05;3.70;;;16.70;99.90;;;;;;4881094;29;20372;-77
2023/08/13 01:23:08;;;;;;;12.95;3.38;;;16.70;99.90;;;;;;4882874;29;20048;-81
2023/08/13 01:25:34;;;;;;;9.50;3.38;;;16.70;99.90;;;;;;4851641;29;20045;-78
2023/08/13 01:28:20;;;;;;;14.20;3.70;;;16.70;99.90;;;;;;4868363;29;20574;-81
2023/08/13 01:30:51;;;;;;;11.82;3.20;;;16.60;99.90;;;;;;4869892;29;20045;-80
2023/08/13 01:33:28;;;;;;;12.27;3.65;;;16.70;99.90;;;;;;4882889;29;20084;-81
2023/08/13 01:36:00;;;;;;;11.65;3.38;;;16.70;99.90;;;;;;4880387;29;20045;-81
2023/08/13 01:38:28;;;;;;;14.90;3.72;;;16.60;99.90;;;;;;4881529;29;20056;-81
2023/08/13 01:40:56;;;;;;;12.68;3.05;;;16.60;99.90;;;;;;4880875;29;20112;-82
2023/08/13 01:43:21;;;;;;;13.80;3.40;;;16.60;99.90;;;;;;4876544;29;20052;-81
2023/08/13 01:45:47;;;;;;;17.00;4.22;;;16.60;99.90;;;;;;4883186;29;20056;-81
2023/08/13 01:48:13;;;;;;;13.40;3.42;;;16.60;99.90;;;;;;4881820;29;20065;-81
2023/08/13 01:50:39;;;;;;;16.48;4.13;;;16.50;99.90;;;;;;4865380;29;20065;-76
2023/08/13 01:53:05;;;;;;;13.13;4.05;;;16.50;99.90;;;;;;4883621;29;20124;-81
2023/08/13 01:55:31;;;;;;;12.98;3.72;;;16.50;99.90;;;;;;4865383;29;20048;-81
2023/08/13 01:57:57;;;;;;;13.32;3.40;;;16.50;99.90;;;;;;4880314;29;20468;-81
2023/08/13 02:00:23;;;;;;;15.25;3.72;;;16.50;99.90;;;;;;4880807;29;20132;-82
2023/08/13 02:02:48;;;;;;;15.60;4.15;;;16.50;99.90;;;;;;4879452;29;20049;-81
2023/08/13 02:05:14;;;;;;;12.70;3.35;;;16.50;99.90;;;;;;4852203;29;20049;-82
2023/08/13 02:07:40;;;;;;;14.15;3.85;;;16.50;99.90;;;;;;4880869;29;20053;-77
2023/08/13 02:10:06;;;;;;;12.55;3.42;;;16.50;99.90;;;;;;4881674;29;20088;-83
2023/08/13 02:12:32;;;;;;;16.83;3.42;;;16.40;99.90;;;;;;4880957;29;20044;-80
2023/08/13 02:14:57;;;;;;;16.83;3.53;;;16.40;99.90;;;;;;4864120;29;20093;-83
2023/08/13 02:17:23;;;;;;;19.80;3.90;;;16.50;99.90;;;;;;4881265;29;20049;-81
2023/08/13 02:19:49;;;;;;;18.02;3.90;;;16.40;99.90;;;;;;4864240;29;20360;-81
2023/08/13 02:22:14;;;;;;;16.13;3.78;;;16.40;99.90;;;;;;4835108;29;20049;-81
2023/08/13 02:24:40;;;;;;;11.02;3.13;;;16.40;99.90;;;;;;4885052;29;20431;-81
2023/08/13 02:27:06;;;;;;;12.65;3.33;;;16.40;99.90;;;;;;4880352;29;20052;-81
2023/08/13 02:29:32;;;;;;;16.52;3.85;;;16.40;99.90;;;;;;4881630;29;20098;-79
2023/08/13 02:31:58;;;;;;;15.18;4.00;;;16.40;99.90;;;;;;4849755;29;20049;-81
2023/08/13 02:34:23;;;;;;;14.25;3.63;;;16.40;99.90;;;;;;4881469;29;20056;-81
2023/08/13 02:36:50;;;;;;;10.90;3.30;;;16.30;99.90;;;;;;4907391;29;20072;-81
2023/08/13 02:39:15;;;;;;;15.98;4.07;;;16.30;99.90;;;;;;4881839;29;20060;-80
2023/08/13 02:41:41;;;;;;;13.77;3.90;;;16.30;99.90;;;;;;4895252;29;20056;-81
2023/08/13 02:44:07;;;;;;;14.80;4.13;;;16.30;99.90;;;;;;4882068;29;20053;-81
2023/08/13 02:46:33;;;;;;;19.38;3.65;;;16.30;99.90;;;;;;4865885;29;20049;-80
2023/08/13 02:48:58;;;;;;;15.95;4.10;;;16.30;99.90;;;;;;4878892;29;20124;-80
2023/08/13 02:51:24;;;;;;;15.88;3.83;;;16.30;99.90;;;;;;4864437;29;20068;-81
2023/08/13 02:53:51;;;;;;;13.65;3.65;;;16.30;99.90;;;;;;4880639;29;20041;-79
2023/08/13 02:56:18;;;;;;;16.80;4.38;;;16.30;99.90;;;;;;4887251;29;20040;-81
2023/08/13 02:58:43;;;;;;;16.85;3.90;;;16.30;99.90;;;;;;4884773;29;20049;-79
2023/08/13 03:01:10;;;;;;;15.95;4.40;;;16.30;99.90;;;;;;4889534;29;20463;-81
2023/08/13 03:03:36;;;;;;;16.13;3.70;;;16.20;99.90;;;;;;4879132;29;20096;-81
2023/08/13 03:06:01;;;;;;;14.65;3.85;;;16.20;99.90;;;;;;4863297;29;20251;-80
2023/08/13 03:08:27;;;;;;;12.70;3.90;;;16.20;99.90;;;;;;4863639;29;20072;-81
2023/08/13 03:10:53;;;;;;;16.08;4.50;;;16.20;99.90;;;;;;4878420;29;20045;-81
2023/08/13 03:13:19;;;;;;;12.05;4.03;;;16.20;99.90;;;;;;4879896;29;20057;-82
2023/08/13 03:15:45;;;;;;;15.75;3.35;;;16.20;99.90;;;;;;4880735;29;20052;-80
2023/08/13 03:18:11;;;;;;;11.05;3.78;;;16.10;99.90;;;;;;4886900;29;20044;-81
2023/08/13 03:20:36;;;;;;;18.27;4.28;;;16.10;99.90;;;;;;4853875;29;20105;-81
2023/08/13 03:23:03;;;;;;;13.15;3.85;;;16.20;99.90;;;;;;4879471;29;20460;-81
2023/08/13 03:25:29;;;;;;;13.38;3.70;;;16.10;99.90;;;;;;4880376;29;20056;-81
2023/08/13 03:27:55;;;;;;;16.13;3.67;;;16.10;99.90;;;;;;4884004;29;20053;-80
2023/08/13 03:30:20;;;;;;;16.13;3.75;;;16.10;99.90;;;;;;4880314;29;20464;-80
2023/08/13 03:32:46;;;;;;;15.60;3.70;;;16.10;99.90;;;;;;4879113;29;20041;-81
2023/08/13 03:35:12;;;;;;;11.77;3.80;;;16.10;99.90;;;;;;4863271;29;20096;-82
2023/08/13 03:37:37;;;;;;;11.95;3.58;;;16.10;99.90;;;;;;4864686;29;20053;-81
2023/08/13 03:40:05;;;;;;;14.20;3.90;;;16.10;99.90;;;;;;4878125;29;20045;-82
2023/08/13 03:42:31;;;;;;;14.77;4.00;;;16.00;99.90;;;;;;4879895;29;20500;-80
2023/08/13 03:44:58;;;;;;;12.20;3.72;;;16.10;99.90;;;;;;4879639;29;20093;-79
2023/08/13 03:47:24;;;;;;;15.77;4.00;;;16.00;99.90;;;;;;4879917;29;20052;-82
2023/08/13 03:49:49;;;;;;;17.85;4.63;;;16.00;99.90;;;;;;4880210;29;20416;-81
2023/08/13 03:52:15;;;;;;;13.32;3.72;;;16.00;99.90;;;;;;4869569;29;20185;-82
2023/08/13 03:54:41;;;;;;;13.30;3.95;;;16.00;99.90;;;;;;4879895;29;20403;-82
2023/08/13 03:57:07;;;;;;;13.25;3.70;;;16.10;99.90;;;;;;4878573;29;20120;-80
2023/08/13 03:59:32;;;;;;;12.82;4.75;;;16.00;99.90;;;;;;4888128;29;20044;-80
2023/08/13 04:01:58;;;;;;;12.82;3.88;;;16.10;99.90;;;;;;4884385;29;20048;-80
2023/08/13 04:04:25;;;;;;;15.88;4.63;;;16.00;99.90;;;;;;4879071;29;20089;-80
2023/08/13 04:06:51;;;;;;;17.77;3.70;;;16.00;99.90;;;;;;4879629;29;20049;-80
2023/08/13 04:09:17;;;;;;;15.77;3.90;;;16.00;99.90;;;;;;4880119;29;20393;-79
2023/08/13 04:11:43;;;;;;;14.68;3.90;;;16.00;99.90;;;;;;4885372;29;20515;-81
2023/08/13 04:14:08;;;;;;;15.00;4.03;;;16.10;99.90;;;;;;4882467;29;20045;-81
2023/08/13 04:16:34;;;;;;;20.23;4.03;;;16.00;99.90;;;;;;4879280;29;20056;-81
2023/08/13 04:19:00;;;;;;;16.25;3.92;;;16.00;99.90;;;;;;4878961;29;20101;-80
2023/08/13 04:21:26;;;;;;;16.65;4.03;;;16.00;99.90;;;;;;4849447;29;20055;-80
2023/08/13 04:23:55;;;;;;;12.80;3.78;;;16.10;99.90;;;;;;4882369;29;20049;-81
2023/08/13 04:26:22;;;;;;;16.58;4.10;;;16.10;99.90;;;;;;4866464;29;20120;-81
2023/08/13 04:28:47;;;;;;;13.50;4.00;;;16.10;99.90;;;;;;4883651;29;20065;-80
2023/08/13 04:31:13;;;;;;;15.13;4.40;;;16.10;99.90;;;;;;4867735;29;20052;-79
2023/08/13 04:33:39;;;;;;;15.60;3.83;;;16.10;99.90;;;;;;4882740;29;20049;-80
2023/08/13 04:36:05;;;;;;;15.85;4.35;;;16.10;99.90;;;;;;4882661;29;20052;-82
2023/08/13 04:38:30;;;;;;;16.23;4.32;;;16.20;99.90;;;;;;4883489;29;20045;-82
2023/08/13 04:40:56;;;;;;;16.33;3.95;;;16.20;99.90;;;;;;4888880;29;20205;-80
2023/08/13 04:43:22;;;;;;;13.68;4.00;;;16.20;99.90;;;;;;4865940;29;20052;-80
2023/08/13 04:45:48;;;;;;;20.35;4.78;;;16.30;99.90;;;;;;4881475;29;20140;-81
2023/08/13 04:48:37;;;;;;;11.95;3.75;;;16.30;99.90;;;;;;4881304;29;20072;-77
2023/08/13 04:51:03;;;;;;;10.80;3.78;;;16.30;99.90;;;;;;4882506;29;20479;-76
2023/08/13 04:53:28;;;;;;;11.25;3.53;;;16.30;99.90;;;;;;4886795;29;20131;-81
2023/08/13 04:55:54;;;;;;;15.18;3.95;;;16.30;99.90;;;;;;4882967;29;20121;-81
2023/08/13 04:58:20;;;;;;;16.50;4.10;;;16.40;99.90;;;;;;4882344;29;20495;-81
2023/08/13 05:00:45;;;;;;;19.80;4.65;;;16.40;99.90;;;;;;4881831;29;20053;-81
2023/08/13 05:03:11;;;;;;;16.95;3.80;;;16.40;99.90;;;;;;4889795;29;20108;-80
2023/08/13 05:05:37;;;;;;;12.63;3.80;;;16.40;99.90;;;;;;4867904;29;20391;-82
2023/08/13 05:08:03;;;;;;;13.55;4.07;;;16.40;99.90;;;;;;4874587;29;20096;-78
2023/08/13 05:10:28;;;;;;;10.80;4.00;;;16.40;99.90;;;;;;4885916;29;20074;-79
2023/08/13 05:12:54;;;;;;;17.10;3.80;;;16.50;99.90;;;;;;4851962;29;20524;-81
2023/08/13 05:15:20;;;;;;;15.80;4.03;;;16.50;99.90;;;;;;4881061;29;20124;-81
2023/08/13 05:17:45;;;;;;;14.18;3.65;;;16.50;99.90;;;;;;4880956;29;20045;-81
2023/08/13 05:20:12;;;;;;;14.13;4.00;;;16.50;99.90;;;;;;4881644;29;20056;-79
2023/08/13 05:22:37;;;;;;;14.48;3.65;;;16.50;99.90;;;;;;4880051;29;20076;-80
2023/08/13 05:25:03;;;;;;;13.68;3.63;;;16.60;99.90;;;;;;4884564;29;20049;-80
2023/08/13 05:27:29;;;;;;;8.68;3.33;;;16.60;99.90;;;;;;4882029;29;20056;-79
2023/08/13 05:29:55;;;;;;;13.18;3.58;;;16.60;99.90;;;;;;4881999;29;20448;-80
2023/08/13 05:32:22;;;;;;;13.43;3.85;;;16.70;99.90;;;;;;4849614;29;20132;-80
2023/08/13 05:34:48;;;;;;;14.07;3.25;;;16.70;99.90;;;;;;4881415;29;20083;-82
2023/08/13 05:37:14;;;;;;;13.93;3.95;;;16.70;99.90;;;;;;4889281;29;20045;-80
2023/08/13 05:39:39;;;;;;;15.73;3.75;;;16.70;99.90;;;;;;4882880;29;20052;-81
2023/08/13 05:42:06;;;;;;;15.50;3.78;;;16.70;99.90;;;;;;4882327;29;20411;-81
2023/08/13 05:44:31;;;;;;;13.32;4.43;;;16.80;99.90;;;;;;4888879;29;20059;-81
2023/08/13 05:46:57;;;;;;;9.88;3.88;;;16.80;99.90;;;;;;4884934;29;20399;-81
2023/08/13 05:49:23;;;;;;;11.00;3.17;;;16.80;99.90;;;;;;4865873;29;20061;-81
2023/08/13 05:51:49;;;;;;;8.43;3.03;;;16.80;99.90;;;;;;4866223;29;20080;-81
2023/08/13 05:54:15;;;;;;;11.57;4.10;;;16.90;99.90;;;;;;4883279;29;20097;-81
2023/08/13 05:56:41;;;;;;;10.27;3.85;;;16.90;99.90;;;;;;4868411;29;20160;-81
2023/08/13 05:59:07;;;;;;;12.07;3.63;;;16.90;99.90;;;;;;4882367;29;20519;-81
2023/08/13 06:01:33;;;;;;;11.98;3.55;;;16.90;99.90;;;;;;4881758;29;20471;-80
2023/08/13 06:03:59;;;;;;;11.80;4.05;;;16.90;99.90;;;;;;4881650;29;20486;-80
2023/08/13 06:06:25;;;;;;;14.43;3.78;;;16.90;99.90;;;;;;4884146;29;20049;-80
2023/08/13 06:08:51;;;;;;;12.18;3.47;;;17.00;99.90;;;;;;4866427;29;20393;-81
2023/08/13 06:11:17;;;;;;;15.57;3.80;;;17.00;99.90;;;;;;4864665;29;20053;-81
2023/08/13 06:13:43;;;;;;;11.35;3.88;;;17.10;99.90;;;;;;4864533;29;20128;-82
2023/08/13 06:16:08;;;;;;;13.18;3.67;;;17.10;99.90;;;;;;4881451;29;20053;-82
2023/08/13 06:18:34;;;;;;;17.42;4.80;;;17.10;99.90;;;;;;4879764;29;20479;-80
2023/08/13 06:21:02;;;;;;;11.73;3.97;;;17.00;99.90;;;;;;4880064;29;20052;-80
2023/08/13 06:23:28;;;;;;;12.25;3.95;;;17.10;99.90;;;;;;4848827;29;20105;-80
2023/08/13 06:25:54;;;;;;;14.02;4.03;;;17.10;99.90;;;;;;4875571;29;20056;-79
2023/08/13 06:28:20;;;;;;;10.93;3.53;;;17.10;99.90;;;;;;4866278;29;20041;-79
2023/08/13 06:30:45;;;;;;;13.73;3.88;;;17.50;99.90;;;;;;4880910;29;20044;-79
2023/08/13 06:33:11;;;;;;;15.02;4.35;;;18.20;99.90;;;;;;4864351;29;20109;-80
2023/08/13 06:35:37;;;;;;;12.95;3.70;;;19.00;99.90;;;;;;4879211;29;20108;-79
2023/08/13 06:38:03;;;;;;;13.50;3.70;;;20.10;99.90;;;;;;4880473;29;20061;-77
2023/08/13 06:40:31;;;;;;;11.70;3.53;;;21.10;99.90;;;;;;4880786;29;20048;-81
2023/08/13 06:42:57;;;;;;;10.10;3.60;;;22.00;99.90;;;;;;4895438;29;20546;-79
2023/08/13 06:45:27;;;;;;;11.45;3.63;;;22.70;99.90;;;;;;4878618;29;20124;-79
2023/08/13 06:47:55;;;;;;;10.65;3.40;;;23.40;99.90;;;;;;4873608;29;20049;-79
2023/08/13 06:50:20;;;;;;;10.68;3.10;;;24.10;99.90;;;;;;4880160;29;20064;-79
2023/08/13 06:52:46;;;;;;;9.30;2.92;;;24.70;99.90;;;;;;4880871;29;20403;-80
2023/08/13 06:55:12;;;;;;;11.60;3.03;;;25.30;99.90;;;;;;4864127;29;20068;-79
2023/08/13 06:57:37;;;;;;;9.52;3.25;;;25.10;99.90;;;;;;4863232;29;20091;-80
2023/08/13 07:00:05;;;;;;;11.60;3.10;;;24.20;99.90;;;;;;4864565;29;20045;-80
2023/08/13 07:02:31;;;;;;;10.35;3.28;;;23.70;99.90;;;;;;4863518;29;20044;-80
2023/08/13 07:04:57;;;;;;;11.35;3.22;;;23.30;99.90;;;;;;4881381;29;20049;-81
2023/08/13 07:07:23;;;;;;;12.32;3.17;;;23.60;99.90;;;;;;4880509;29;20080;-81
2023/08/13 07:09:49;;;;;;;10.10;3.00;;;23.60;99.90;;;;;;4879421;29;20053;-81
2023/08/13 07:12:14;;;;;;;9.43;3.08;;;23.90;99.90;;;;;;4863406;29;20048;-81
2023/08/13 07:14:41;;;;;;;10.30;2.90;;;24.60;99.90;;;;;;4865667;29;20132;-78
2023/08/13 07:17:06;;;;;;;9.05;2.97;;;25.10;99.90;;;;;;4883776;29;20108;-80
2023/08/13 07:19:33;;;;;;;11.13;3.15;;;25.80;99.90;;;;;;4881137;29;20503;-79
2023/08/13 07:21:59;;;;;;;9.55;2.78;;;26.00;99.90;;;;;;4878714;29;20057;-81
2023/08/13 07:24:24;;;;;;;10.15;3.00;;;26.30;99.90;;;;;;4881231;29;20468;-78
2023/08/13 07:26:50;;;;;;;12.10;3.38;;;26.60;99.90;;;;;;4885802;29;20059;-79
2023/08/13 07:29:16;;;;;;;7.68;2.70;;;26.90;99.90;;;;;;4867331;29;20056;-81
2023/08/13 07:31:42;;;;;;;8.50;2.80;;;27.20;99.90;;;;;;4879192;29;20134;-80
2023/08/13 07:34:08;;;;;;;9.00;2.60;;;27.30;99.90;;;;;;4862458;29;20575;-80
2023/08/13 07:36:34;;;;;;;8.95;2.60;;;27.50;99.90;;;;;;4879548;29;20048;-81
2023/08/13 07:38:59;;;;;;;10.35;2.92;;;27.50;99.90;;;;;;4863298;29;20053;-81
2023/08/13 07:41:25;;;;;;;12.20;3.15;;;27.50;99.90;;;;;;4862277;29;20504;-77
2023/08/13 07:43:51;;;;;;;13.25;3.50;;;27.50;99.90;;;;;;4865552;29;20069;-80
2023/08/13 07:46:17;;;;;;;11.45;3.15;;;27.40;99.90;;;;;;4879725;29;20051;-79
2023/08/13 07:48:43;;;;;;;13.43;2.60;;;27.40;99.90;;;;;;4876829;29;20532;-80
2023/08/13 07:51:08;;;;;;;15.80;3.35;;;27.40;99.90;;;;;;4890211;29;20052;-80
2023/08/13 07:53:34;;;;;;;12.05;2.80;;;27.70;99.90;;;;;;4880617;29;20045;-79
2023/08/13 07:56:00;;;;;;;9.90;3.00;;;27.90;99.90;;;;;;4862698;29;20132;-80
2023/08/13 07:58:26;;;;;;;9.40;3.03;;;28.20;99.90;;;;;;4879509;29;20562;-76
2023/08/13 08:00:52;;;;;;;7.70;2.45;;;28.10;99.90;;;;;;4862087;29;20066;-79
2023/08/13 08:03:17;;;;;;;9.60;3.33;;;27.80;99.90;;;;;;4863500;29;20072;-79
2023/08/13 08:05:47;;;;;;;10.68;3.33;;;27.60;99.90;;;;;;4878681;29;20045;-81
2023/08/13 08:08:13;;;;;;;9.85;2.85;;;27.70;99.90;;;;;;4879313;29;20052;-79
2023/08/13 08:10:39;;;;;;;8.45;2.85;;;27.80;99.90;;;;;;4861944;29;20088;-79
2023/08/13 08:13:05;;;;;;;9.40;2.60;;;28.30;99.90;;;;;;4877537;29;20049;-79
2023/08/13 08:15:31;;;;;;;7.25;2.55;;;28.60;99.80;;;;;;4878393;29;20398;-77
2023/08/13 08:17:56;;;;;;;8.57;2.85;;;29.10;99.30;;;;;;4877969;29;20167;-80
2023/08/13 08:20:22;;;;;;;7.15;2.38;;;28.80;98.80;;;;;;4862918;29;20037;-80
2023/08/13 08:22:48;;;;;;;8.25;2.53;;;28.30;99.30;;;;;;4878819;29;20109;-80
2023/08/13 08:25:13;;;;;;;8.02;2.72;;;27.50;99.70;;;;;;4878641;29;20049;-81
2023/08/13 08:27:39;;;;;;;10.27;3.28;;;26.80;99.90;;;;;;4877632;29;20049;-81
2023/08/13 08:30:06;;;;;;;10.68;2.95;;;26.30;99.90;;;;;;4883753;29;20052;-81
2023/08/13 08:32:32;;;;;;;10.30;3.00;;;25.90;99.90;;;;;;4878655;29;20052;-77
2023/08/13 08:34:57;;;;;;;11.68;2.92;;;25.50;99.90;;;;;;4878834;29;20049;-80
2023/08/13 08:37:23;;;;;;;12.98;2.90;;;25.60;99.90;;;;;;4879145;29;20388;-80
2023/08/13 08:39:49;;;;;;;9.63;2.80;;;26.00;99.90;;;;;;4876764;29;20045;-81
2023/08/13 08:42:15;;;;;;;7.70;2.60;;;26.50;99.90;;;;;;4861736;29;20049;-80
2023/08/13 08:44:43;;;;;;;9.18;2.70;;;26.80;99.90;;;;;;4877915;29;20049;-79
2023/08/13 08:47:09;;;;;;;7.47;2.63;;;27.00;99.90;;;;;;4877143;29;20063;-80
2023/08/13 08:49:36;;;;;;;7.25;2.30;;;27.20;99.90;;;;;;4877268;29;20408;-78
2023/08/13 08:52:01;;;;;;;9.88;2.75;;;27.60;99.90;;;;;;4878495;29;20045;-79
2023/08/13 08:54:27;;;;;;;8.75;2.50;;;28.20;99.50;;;;;;4861922;29;20559;-80
2023/08/13 08:56:53;;;;;;;11.20;2.75;;;28.40;99.20;;;;;;4861486;29;20160;-81
2023/08/13 08:59:20;;;;;;;8.68;2.40;;;28.10;99.10;;;;;;4876510;29;20109;-78
2023/08/13 09:01:46;;;;;;;8.23;2.38;;;27.70;99.20;;;;;;4877606;29;20451;-81
2023/08/13 09:04:12;;;;;;;8.63;2.88;;;27.60;99.70;;;;;;4878259;29;20069;-80
2023/08/13 09:07:07;;;;;;;7.40;2.10;;;27.50;99.50;;;;;;4876969;29;20061;-80
2023/08/13 09:09:33;;;;;;;12.50;2.60;;;27.50;99.60;;;;;;4872023;29;20049;-80
2023/08/13 09:11:59;;;;;;;9.02;2.53;;;27.30;99.80;;;;;;4881541;29;20109;-80
2023/08/13 09:14:26;;;;;;;8.80;2.63;;;27.00;99.90;;;;;;4880880;29;20144;-81
2023/08/13 09:16:53;;;;;;;8.63;2.13;;;26.80;99.90;;;;;;4864932;29;20075;-80
2023/08/13 09:19:21;;;;;;;8.77;2.20;;;26.90;99.90;;;;;;4866520;29;20060;-78
2023/08/13 09:21:55;;;;;;;7.63;2.17;;;27.40;99.90;;;;;;4876210;29;20452;-79
2023/08/13 09:24:37;;;;;;;6.32;2.13;;;27.90;99.10;;;;;;4884872;29;20061;-79
2023/08/13 09:27:06;;;;;;;6.65;1.70;;;28.30;99.20;;;;;;4882748;29;20049;-80
2023/08/13 09:29:32;;;;;;;7.53;2.00;;;29.00;98.40;;;;;;4864967;29;20060;-79
2023/08/13 09:32:00;;;;;;;9.98;2.35;;;29.20;96.90;;;;;;4867482;29;20614;-79
2023/08/13 09:34:30;;;;;;;8.32;2.30;;;29.50;97.60;;;;;;4880040;29;20105;-81
2023/08/13 09:36:57;;;;;;;7.80;2.15;;;29.60;96.60;;;;;;4879613;29;20061;-81
2023/08/13 09:39:24;;;;;;;7.00;2.17;;;29.30;96.60;;;;;;4865432;29;20056;-81
2023/08/13 09:41:51;;;;;;;6.53;2.28;;;29.20;97.10;;;;;;4865934;29;20055;-80
2023/08/13 09:44:24;;;;;;;4.05;1.42;;;29.20;96.70;;;;;;4891355;29;20053;-81
2023/08/13 09:47:17;;;;;;;6.40;1.90;;;29.20;97.00;;;;;;4865566;29;20120;-80
2023/08/13 09:49:45;;;;;;;6.13;1.88;;;28.80;96.50;;;;;;4876848;29;20203;-78
2023/08/13 09:52:12;;;;;;;6.10;1.67;;;28.60;97.20;;;;;;4881571;29;20076;-80
2023/08/13 09:54:41;;;;;;;6.80;2.05;;;28.30;97.10;;;;;;4886547;29;20508;-82
2023/08/13 09:57:09;;;;;;;6.43;2.05;;;28.10;97.70;;;;;;4879849;29;20049;-81
2023/08/13 09:59:36;;;;;;;7.07;2.13;;;28.00;98.00;;;;;;4865105;29;20167;-81
2023/08/13 10:02:08;;;;;;;7.20;2.08;;;27.90;97.40;;;;;;4879721;29;20056;-81
2023/08/13 10:04:35;;;;;;;6.55;1.65;;;27.70;97.90;;;;;;4885622;29;20049;-81
2023/08/13 10:07:03;;;;;;;8.75;2.00;;;27.40;98.10;;;;;;4880096;29;20488;-80
2023/08/13 10:09:29;;;;;;;7.13;2.15;;;27.20;98.50;;;;;;4864886;29;20057;-78
2023/08/13 10:11:56;;;;;;;5.68;1.90;;;26.90;98.90;;;;;;4863603;29;20041;-80
2023/08/13 10:14:22;;;;;;;7.95;2.03;;;26.70;98.90;;;;;;4881756;29;20455;-81
2023/08/13 10:16:48;;;;;;;7.32;1.95;;;26.30;99.20;;;;;;4880394;29;20087;-81
2023/08/13 10:19:15;;;;;;;7.03;2.40;;;26.10;99.70;;;;;;4879329;29;20183;-81
2023/08/13 10:21:40;;;;;;;6.93;2.03;;;25.90;99.90;;;;;;4865307;29;20041;-81
2023/08/13 10:24:12;;;;;;;8.82;2.17;;;25.90;99.90;;;;;;4881502;29;20977;-81
2023/08/13 10:26:41;;;;;;;7.90;2.03;;;25.90;99.90;;;;;;4880472;29;20052;-80
2023/08/13 10:29:18;;;;;;;4.93;1.90;;;25.80;99.90;;;;;;4878850;29;20063;-79
2023/08/13 10:32:01;;;;;;;8.82;1.77;;;26.00;99.70;;;;;;4879460;29;20049;-81
2023/08/13 10:34:59;;;;;;;4.38;1.60;;;26.00;99.90;;;;;;4875735;29;20352;-80
2023/08/13 10:37:30;;;;;;;7.15;1.83;;;26.00;99.90;;;;;;4827700;29;20053;-81
2023/08/13 10:39:55;;;;;;;7.60;2.10;;;25.90;99.60;;;;;;4875925;29;20136;-79
2023/08/13 10:42:27;;;;;;;5.25;1.80;;;25.90;99.70;;;;;;4878985;29;20072;-80
2023/08/13 10:45:17;;;;;;;7.97;2.00;;;26.00;99.90;;;;;;4878579;29;20104;-81
2023/08/13 10:47:54;;;;;;;5.88;2.03;;;26.10;99.90;;;;;;4881841;29;20144;-81
2023/08/13 10:50:29;;;;;;;8.10;2.03;;;26.20;99.60;;;;;;4862348;29;20165;-81
2023/08/13 10:53:21;;;;;;;10.13;2.10;;;26.10;99.60;;;;;;4878483;29;20556;-82
2023/08/13 10:55:52;;;;;;;6.72;2.05;;;26.20;99.90;;;;;;4879004;29;20124;-80
2023/08/13 10:58:39;;;;;;;7.18;1.75;;;26.20;99.90;;;;;;4878375;29;20072;-81
2023/08/13 11:01:13;;;;;;;4.38;1.73;;;26.40;99.90;;;;;;4878845;29;20055;-81
2023/08/13 11:03:57;;;;;;;7.72;1.92;;;26.50;99.60;;;;;;4862513;29;20053;-80
2023/08/13 11:06:24;;;;;;;;;;;26.40;99.50;;;;;;4872463;29;20132;-80
2023/08/13 11:08:51;;;;;;;5.13;1.70;;;26.50;99.90;;;;;;4884712;29;19930;-78
2023/08/13 11:11:18;;;;;;;8.27;2.00;;;26.70;99.50;;;;;;4878795;29;20074;-80
2023/08/13 11:13:44;;;;;;;6.60;1.85;;;26.70;99.30;;;;;;4878366;29;20049;-81
2023/08/13 11:16:11;;;;;;;6.75;1.70;;;26.50;98.60;;;;;;4871201;29;20437;-81
2023/08/13 11:18:37;;;;;;;6.15;1.60;;;26.50;98.90;;;;;;4878742;29;20105;-80
2023/08/13 11:21:04;;;;;;;7.28;1.73;;;26.40;99.50;;;;;;4879601;29;20056;-80
2023/08/13 11:23:30;;;;;;;6.88;1.75;;;26.20;99.30;;;;;;4878492;29;20045;-79
2023/08/13 11:25:56;;;;;;;7.65;1.77;;;26.00;99.30;;;;;;4878068;29;20056;-82
2023/08/13 11:28:27;;;;;;;4.13;1.80;;;26.10;99.00;;;;;;4862398;29;20043;-80
2023/08/13 11:30:56;;;;;;;6.80;1.85;;;26.10;99.30;;;;;;4878593;29;20053;-78
2023/08/13 11:33:22;;;;;;;6.75;1.95;;;26.10;99.20;;;;;;4884013;29;20036;-80
2023/08/13 11:35:49;;;;;;;5.93;1.95;;;26.20;99.10;;;;;;4889848;29;20148;-80
2023/08/13 11:38:15;;;;;;;4.32;1.67;;;26.20;99.30;;;;;;4864015;29;20084;-79
2023/08/13 11:40:41;;;;;;;7.47;1.83;;;26.30;99.60;;;;;;4862380;29;20517;-81
2023/08/13 11:43:11;;;;;;;6.03;1.85;;;26.30;99.50;;;;;;4884035;29;20068;-81
2023/08/13 11:45:43;;;;;;;6.78;2.20;;;26.20;99.40;;;;;;4867911;29;20053;-80
2023/08/13 11:48:14;;;;;;;5.93;2.17;;;26.00;99.70;;;;;;4884626;29;20056;-80
2023/08/13 11:50:41;;;;;;;6.82;1.90;;;26.00;99.90;;;;;;4866297;29;20128;-81
2023/08/13 11:53:13;;;;;;;6.03;1.90;;;26.00;99.90;;;;;;4878058;29;20347;-81
2023/08/13 11:55:44;;;;;;;6.28;1.83;;;26.00;99.90;;;;;;4877896;29;20080;-81
2023/08/13 11:58:10;;;;;;;6.80;1.77;;;26.00;99.90;;;;;;4861438;29;20056;-81
2023/08/13 12:00:36;;;;;;;6.47;2.08;;;26.00;99.90;;;;;;4878211;29;20392;-80
2023/08/13 12:03:02;;;;;;;4.25;1.60;;;25.90;99.90;;;;;;4877706;29;20057;-81
2023/08/13 12:05:30;;;;;;;5.22;1.65;;;25.80;99.90;;;;;;4861954;29;20075;-81
2023/08/13 12:07:57;;;;;;;6.80;2.10;;;25.70;99.90;;;;;;4878794;29;20577;-80
2023/08/13 12:10:23;;;;;;;4.45;1.70;;;25.70;99.90;;;;;;4862885;29;20061;-80
2023/08/13 12:12:49;;;;;;;6.07;1.90;;;25.70;99.90;;;;;;4879008;29;20041;-80
2023/08/13 12:15:16;;;;;;;3.95;1.30;;;25.80;99.90;;;;;;4883318;29;20132;-81
2023/08/13 12:17:42;;;;;;;5.38;1.80;;;25.70;99.60;;;;;;4880303;29;20128;-81
2023/08/13 12:20:11;;;;;;;4.75;1.73;;;25.70;99.90;;;;;;4862952;29;20656;-81
2023/08/13 12:22:37;;;;;;;5.10;1.70;;;25.60;99.90;;;;;;4864055;29;20044;-81
2023/08/13 12:25:03;;;;;;;3.47;1.50;;;25.60;99.90;;;;;;4877738;29;20044;-80
2023/08/13 12:27:29;;;;;;;7.68;2.08;;;25.70;99.90;;;;;;4880441;29;20041;-80
2023/08/13 12:29:54;;;;;;;3.10;1.52;;;25.80;99.90;;;;;;4877970;29;20128;-81
2023/08/13 12:32:20;;;;;;;6.35;1.88;;;25.80;99.90;;;;;;4877496;29;20053;-80
2023/08/13 12:34:46;;;;;;;7.30;1.80;;;25.80;99.90;;;;;;4877890;29;20037;-80
2023/08/13 12:37:12;;;;;;;4.28;1.58;;;25.70;99.90;;;;;;4883471;29;20092;-80
2023/08/13 12:39:37;;;;;;;6.70;1.75;;;25.60;99.90;;;;;;4862757;29;20088;-80
2023/08/13 12:42:03;;;;;;;5.53;1.75;;;25.60;99.90;;;;;;4879497;29;20519;-78